Pagina principală
METAR-TAF:

METAR-TAF

Aeroporturi :

Clark Field Municipal Airport

Stephenville, Texas, Statele Unite ale Americii

Latitudine: 32-13N, longitudine: 098-11W, elevație: 403 m

Observații meteo curente

Raportul a fost făcut în urmă cu 25 de minute, la 22:55 UTC
Vânt calm
Temperatură 33°C
Umiditate 39%
Presiune 1017 hPa
Vizibilitate: 16.1 km
Cer senin

METAR: KSEP 222255Z AUTO 00000KT 10SM CLR 33/17 A3002 RMK AO2 T03320174

Ora: 18:20 (23:20 UTC)


TAF: lipsă

Observații și prognoze meteo pentru peste 4.000 de aeroporturi (rapoarte METAR și TAF).

Stațiile disponibile sunt reprezentate pe hartă prin puncte galbene și roșii.

Țineți indicatorul mouse-ului pe punctul dorit pentru a vedea denumirea stației.

Apoi, faceți clic pentru a vedea observațiile și prognozele meteorologice.

Pentru a schimba harta: Pentru mărire, faceți clic pe butoanele verzi cu cruce neagră; pentru micșorare, pe butonul verde cu o liniuță; pentru hărți învecinate, pe săgețile verzi.


METAR-TAF: